sensor_id;sensor_type;location;lat;lon;timestamp;P1;durP1;ratioP1;P2;durP2;ratioP2
51578;SDS011;47998;53.242;6.386;2023-10-19T00:00:48;29.50;;;19.23;;
51578;SDS011;47998;53.242;6.386;2023-10-19T00:03:16;30.55;;;19.30;;
51578;SDS011;47998;53.242;6.386;2023-10-19T00:05:43;34.88;;;20.42;;
51578;SDS011;47998;53.242;6.386;2023-10-19T00:08:12;30.52;;;20.85;;
51578;SDS011;47998;53.242;6.386;2023-10-19T00:10:39;32.28;;;21.10;;
51578;SDS011;47998;53.242;6.386;2023-10-19T00:13:08;32.80;;;22.67;;
51578;SDS011;47998;53.242;6.386;2023-10-19T00:15:37;39.03;;;21.27;;
51578;SDS011;47998;53.242;6.386;2023-10-19T00:18:11;35.97;;;22.50;;
51578;SDS011;47998;53.242;6.386;2023-10-19T00:20:41;35.55;;;22.52;;
51578;SDS011;47998;53.242;6.386;2023-10-19T00:23:13;39.95;;;23.20;;
51578;SDS011;47998;53.242;6.386;2023-10-19T00:25:43;32.42;;;21.35;;
51578;SDS011;47998;53.242;6.386;2023-10-19T00:28:18;35.65;;;22.77;;
51578;SDS011;47998;53.242;6.386;2023-10-19T00:30:44;39.03;;;23.45;;
51578;SDS011;47998;53.242;6.386;2023-10-19T00:33:11;40.65;;;24.73;;
51578;SDS011;47998;53.242;6.386;2023-10-19T00:35:45;41.00;;;26.10;;
51578;SDS011;47998;53.242;6.386;2023-10-19T00:38:26;40.33;;;25.15;;
51578;SDS011;47998;53.242;6.386;2023-10-19T00:40:54;40.20;;;26.15;;
51578;SDS011;47998;53.242;6.386;2023-10-19T00:43:36;40.88;;;25.02;;
51578;SDS011;47998;53.242;6.386;2023-10-19T00:46:11;40.97;;;24.42;;
51578;SDS011;47998;53.242;6.386;2023-10-19T00:51:18;40.55;;;26.02;;
51578;SDS011;47998;53.242;6.386;2023-10-19T00:54:15;41.63;;;25.85;;
51578;SDS011;47998;53.242;6.386;2023-10-19T00:56:51;43.45;;;25.95;;
51578;SDS011;47998;53.242;6.386;2023-10-19T00:59:21;43.00;;;25.83;;
51578;SDS011;47998;53.242;6.386;2023-10-19T01:01:51;45.83;;;27.15;;
51578;SDS011;47998;53.242;6.386;2023-10-19T01:04:28;45.13;;;28.13;;
51578;SDS011;47998;53.242;6.386;2023-10-19T01:06:58;53.47;;;28.98;;
51578;SDS011;47998;53.242;6.386;2023-10-19T01:09:29;44.42;;;27.15;;
51578;SDS011;47998;53.242;6.386;2023-10-19T01:12:00;43.58;;;28.33;;
51578;SDS011;47998;53.242;6.386;2023-10-19T01:14:31;45.88;;;29.23;;
51578;SDS011;47998;53.242;6.386;2023-10-19T01:16:57;47.88;;;29.58;;
51578;SDS011;47998;53.242;6.386;2023-10-19T01:19:24;52.35;;;29.30;;
51578;SDS011;47998;53.242;6.386;2023-10-19T01:21:52;45.50;;;27.52;;
51578;SDS011;47998;53.242;6.386;2023-10-19T01:24:24;50.60;;;28.77;;
51578;SDS011;47998;53.242;6.386;2023-10-19T01:27:08;44.88;;;29.13;;
51578;SDS011;47998;53.242;6.386;2023-10-19T01:29:35;55.75;;;31.08;;
51578;SDS011;47998;53.242;6.386;2023-10-19T01:32:03;49.03;;;30.35;;
51578;SDS011;47998;53.242;6.386;2023-10-19T01:34:34;50.92;;;32.35;;
51578;SDS011;47998;53.242;6.386;2023-10-19T01:37:01;48.10;;;29.98;;
51578;SDS011;47998;53.242;6.386;2023-10-19T01:39:33;56.10;;;32.42;;
51578;SDS011;47998;53.242;6.386;2023-10-19T01:42:02;53.93;;;31.33;;
51578;SDS011;47998;53.242;6.386;2023-10-19T01:44:32;56.90;;;32.13;;
51578;SDS011;47998;53.242;6.386;2023-10-19T01:47:01;56.40;;;31.50;;
51578;SDS011;47998;53.242;6.386;2023-10-19T01:49:30;56.63;;;32.40;;
51578;SDS011;47998;53.242;6.386;2023-10-19T01:51:56;60.83;;;33.08;;
51578;SDS011;47998;53.242;6.386;2023-10-19T01:54:22;55.60;;;31.83;;
51578;SDS011;47998;53.242;6.386;2023-10-19T01:56:53;53.78;;;30.73;;
51578;SDS011;47998;53.242;6.386;2023-10-19T01:59:24;56.63;;;32.35;;
51578;SDS011;47998;53.242;6.386;2023-10-19T02:01:56;56.67;;;32.30;;
51578;SDS011;47998;53.242;6.386;2023-10-19T02:04:22;53.08;;;30.63;;
51578;SDS011;47998;53.242;6.386;2023-10-19T02:06:50;52.33;;;31.58;;
51578;SDS011;47998;53.242;6.386;2023-10-19T02:09:19;54.05;;;32.30;;
51578;SDS011;47998;53.242;6.386;2023-10-19T02:11:57;52.78;;;32.28;;
51578;SDS011;47998;53.242;6.386;2023-10-19T02:14:24;56.53;;;31.13;;
51578;SDS011;47998;53.242;6.386;2023-10-19T02:16:54;54.80;;;31.30;;
51578;SDS011;47998;53.242;6.386;2023-10-19T02:19:27;54.25;;;31.13;;
51578;SDS011;47998;53.242;6.386;2023-10-19T02:21:55;57.40;;;32.95;;
51578;SDS011;47998;53.242;6.386;2023-10-19T02:24:28;52.08;;;31.67;;
51578;SDS011;47998;53.242;6.386;2023-10-19T02:26:54;50.65;;;31.95;;
51578;SDS011;47998;53.242;6.386;2023-10-19T02:29:22;49.05;;;30.67;;
51578;SDS011;47998;53.242;6.386;2023-10-19T02:31:48;48.75;;;30.48;;
51578;SDS011;47998;53.242;6.386;2023-10-19T02:34:19;51.42;;;31.77;;
51578;SDS011;47998;53.242;6.386;2023-10-19T02:36:45;48.25;;;29.42;;
51578;SDS011;47998;53.242;6.386;2023-10-19T02:39:13;53.03;;;30.95;;
51578;SDS011;47998;53.242;6.386;2023-10-19T02:41:40;44.03;;;26.63;;
51578;SDS011;47998;53.242;6.386;2023-10-19T02:44:08;57.75;;;32.80;;
51578;SDS011;47998;53.242;6.386;2023-10-19T02:46:35;54.17;;;30.42;;
51578;SDS011;47998;53.242;6.386;2023-10-19T02:49:07;47.42;;;29.52;;
51578;SDS011;47998;53.242;6.386;2023-10-19T02:51:40;46.47;;;27.63;;
51578;SDS011;47998;53.242;6.386;2023-10-19T02:54:10;51.33;;;29.52;;
51578;SDS011;47998;53.242;6.386;2023-10-19T02:56:45;51.50;;;28.48;;
51578;SDS011;47998;53.242;6.386;2023-10-19T02:59:15;49.67;;;27.90;;
51578;SDS011;47998;53.242;6.386;2023-10-19T03:01:42;51.22;;;28.52;;
51578;SDS011;47998;53.242;6.386;2023-10-19T03:04:11;51.60;;;30.35;;
51578;SDS011;47998;53.242;6.386;2023-10-19T03:06:40;51.92;;;28.08;;
51578;SDS011;47998;53.242;6.386;2023-10-19T03:09:07;42.47;;;26.42;;
51578;SDS011;47998;53.242;6.386;2023-10-19T03:11:54;45.17;;;26.05;;
51578;SDS011;47998;53.242;6.386;2023-10-19T03:14:25;46.70;;;27.88;;
51578;SDS011;47998;53.242;6.386;2023-10-19T03:16:51;53.30;;;29.98;;
51578;SDS011;47998;53.242;6.386;2023-10-19T03:19:20;51.72;;;27.08;;
51578;SDS011;47998;53.242;6.386;2023-10-19T03:21:45;51.88;;;27.80;;
51578;SDS011;47998;53.242;6.386;2023-10-19T03:24:15;48.20;;;26.83;;
51578;SDS011;47998;53.242;6.386;2023-10-19T03:27:00;42.78;;;25.15;;
51578;SDS011;47998;53.242;6.386;2023-10-19T03:29:38;44.58;;;27.85;;
51578;SDS011;47998;53.242;6.386;2023-10-19T03:32:11;52.22;;;27.85;;
51578;SDS011;47998;53.242;6.386;2023-10-19T03:34:37;43.00;;;25.38;;
51578;SDS011;47998;53.242;6.386;2023-10-19T03:37:04;49.33;;;27.25;;
51578;SDS011;47998;53.242;6.386;2023-10-19T03:39:37;46.55;;;26.20;;
51578;SDS011;47998;53.242;6.386;2023-10-19T03:42:03;46.10;;;26.42;;
51578;SDS011;47998;53.242;6.386;2023-10-19T03:44:33;49.47;;;27.80;;
51578;SDS011;47998;53.242;6.386;2023-10-19T03:47:18;46.40;;;26.38;;
51578;SDS011;47998;53.242;6.386;2023-10-19T03:49:46;45.33;;;26.67;;
51578;SDS011;47998;53.242;6.386;2023-10-19T03:52:12;49.67;;;26.23;;
51578;SDS011;47998;53.242;6.386;2023-10-19T03:54:39;49.15;;;27.25;;
51578;SDS011;47998;53.242;6.386;2023-10-19T03:57:08;43.88;;;24.13;;
51578;SDS011;47998;53.242;6.386;2023-10-19T03:59:47;44.30;;;24.53;;
51578;SDS011;47998;53.242;6.386;2023-10-19T04:02:23;46.42;;;24.38;;
51578;SDS011;47998;53.242;6.386;2023-10-19T04:05:00;44.00;;;26.10;;
51578;SDS011;47998;53.242;6.386;2023-10-19T04:07:28;38.17;;;23.45;;
51578;SDS011;47998;53.242;6.386;2023-10-19T04:09:56;42.63;;;23.73;;
51578;SDS011;47998;53.242;6.386;2023-10-19T04:12:31;38.53;;;22.50;;
51578;SDS011;47998;53.242;6.386;2023-10-19T04:15:00;47.28;;;24.95;;
51578;SDS011;47998;53.242;6.386;2023-10-19T04:17:35;50.85;;;26.17;;
51578;SDS011;47998;53.242;6.386;2023-10-19T04:20:05;39.15;;;22.98;;
51578;SDS011;47998;53.242;6.386;2023-10-19T04:22:46;44.88;;;25.15;;
51578;SDS011;47998;53.242;6.386;2023-10-19T04:25:13;42.20;;;24.42;;
51578;SDS011;47998;53.242;6.386;2023-10-19T04:27:44;48.38;;;25.83;;
51578;SDS011;47998;53.242;6.386;2023-10-19T04:30:11;45.15;;;23.90;;
51578;SDS011;47998;53.242;6.386;2023-10-19T04:32:41;39.60;;;23.48;;
51578;SDS011;47998;53.242;6.386;2023-10-19T04:35:07;40.78;;;23.30;;
51578;SDS011;47998;53.242;6.386;2023-10-19T04:37:34;38.67;;;22.35;;
51578;SDS011;47998;53.242;6.386;2023-10-19T04:40:00;37.53;;;22.70;;
51578;SDS011;47998;53.242;6.386;2023-10-19T04:42:27;43.15;;;22.58;;
51578;SDS011;47998;53.242;6.386;2023-10-19T04:44:56;39.38;;;21.65;;
51578;SDS011;47998;53.242;6.386;2023-10-19T04:47:22;35.17;;;19.70;;
51578;SDS011;47998;53.242;6.386;2023-10-19T04:49:48;36.50;;;20.95;;
51578;SDS011;47998;53.242;6.386;2023-10-19T04:52:14;32.78;;;19.17;;
51578;SDS011;47998;53.242;6.386;2023-10-19T04:54:40;33.83;;;19.95;;
51578;SDS011;47998;53.242;6.386;2023-10-19T04:57:07;35.25;;;20.13;;
51578;SDS011;47998;53.242;6.386;2023-10-19T04:59:33;31.60;;;18.70;;
51578;SDS011;47998;53.242;6.386;2023-10-19T05:01:59;34.38;;;20.25;;
51578;SDS011;47998;53.242;6.386;2023-10-19T05:04:27;35.30;;;20.33;;
51578;SDS011;47998;53.242;6.386;2023-10-19T05:06:54;29.67;;;18.60;;
51578;SDS011;47998;53.242;6.386;2023-10-19T05:09:20;36.20;;;19.90;;
51578;SDS011;47998;53.242;6.386;2023-10-19T05:11:46;31.30;;;18.98;;
51578;SDS011;47998;53.242;6.386;2023-10-19T05:14:13;34.00;;;19.67;;
51578;SDS011;47998;53.242;6.386;2023-10-19T05:16:39;31.25;;;18.52;;
51578;SDS011;47998;53.242;6.386;2023-10-19T05:19:05;34.67;;;19.67;;
51578;SDS011;47998;53.242;6.386;2023-10-19T05:21:30;34.17;;;20.38;;
51578;SDS011;47998;53.242;6.386;2023-10-19T05:23:57;41.67;;;22.05;;
51578;SDS011;47998;53.242;6.386;2023-10-19T05:26:25;39.45;;;23.02;;
51578;SDS011;47998;53.242;6.386;2023-10-19T05:28:52;33.97;;;20.38;;
51578;SDS011;47998;53.242;6.386;2023-10-19T05:31:17;39.00;;;20.92;;
51578;SDS011;47998;53.242;6.386;2023-10-19T05:33:43;30.50;;;19.23;;
51578;SDS011;47998;53.242;6.386;2023-10-19T05:36:09;32.90;;;19.23;;
51578;SDS011;47998;53.242;6.386;2023-10-19T05:38:35;32.10;;;18.20;;
51578;SDS011;47998;53.242;6.386;2023-10-19T05:41:01;33.53;;;19.05;;
51578;SDS011;47998;53.242;6.386;2023-10-19T05:43:26;31.58;;;18.77;;
51578;SDS011;47998;53.242;6.386;2023-10-19T05:45:53;33.13;;;18.35;;
51578;SDS011;47998;53.242;6.386;2023-10-19T05:48:19;30.65;;;18.35;;
51578;SDS011;47998;53.242;6.386;2023-10-19T05:50:45;30.05;;;17.80;;
51578;SDS011;47998;53.242;6.386;2023-10-19T05:53:11;30.08;;;18.67;;
51578;SDS011;47998;53.242;6.386;2023-10-19T05:55:38;31.08;;;18.05;;
51578;SDS011;47998;53.242;6.386;2023-10-19T05:58:04;28.13;;;16.20;;
51578;SDS011;47998;53.242;6.386;2023-10-19T06:00:30;29.63;;;16.65;;
51578;SDS011;47998;53.242;6.386;2023-10-19T06:02:56;24.40;;;14.02;;
51578;SDS011;47998;53.242;6.386;2023-10-19T06:05:25;24.55;;;14.27;;
51578;SDS011;47998;53.242;6.386;2023-10-19T06:07:51;23.50;;;15.07;;
51578;SDS011;47998;53.242;6.386;2023-10-19T06:10:20;18.88;;;12.07;;
51578;SDS011;47998;53.242;6.386;2023-10-19T06:12:51;18.88;;;12.52;;
51578;SDS011;47998;53.242;6.386;2023-10-19T06:15:18;18.25;;;11.35;;
51578;SDS011;47998;53.242;6.386;2023-10-19T06:17:46;18.17;;;11.52;;
51578;SDS011;47998;53.242;6.386;2023-10-19T06:20:13;16.27;;;10.52;;
51578;SDS011;47998;53.242;6.386;2023-10-19T06:22:53;19.40;;;12.23;;
51578;SDS011;47998;53.242;6.386;2023-10-19T06:25:21;21.83;;;12.85;;
51578;SDS011;47998;53.242;6.386;2023-10-19T06:27:48;18.55;;;12.50;;
51578;SDS011;47998;53.242;6.386;2023-10-19T06:30:16;18.80;;;11.82;;
51578;SDS011;47998;53.242;6.386;2023-10-19T06:32:45;17.10;;;11.50;;
51578;SDS011;47998;53.242;6.386;2023-10-19T06:35:12;17.60;;;10.93;;
51578;SDS011;47998;53.242;6.386;2023-10-19T06:37:38;19.40;;;12.02;;
51578;SDS011;47998;53.242;6.386;2023-10-19T06:40:05;17.13;;;11.60;;
51578;SDS011;47998;53.242;6.386;2023-10-19T06:42:32;19.52;;;11.75;;
51578;SDS011;47998;53.242;6.386;2023-10-19T06:45:00;23.73;;;12.65;;
51578;SDS011;47998;53.242;6.386;2023-10-19T06:47:25;14.60;;;10.20;;
51578;SDS011;47998;53.242;6.386;2023-10-19T06:49:51;18.15;;;11.30;;
51578;SDS011;47998;53.242;6.386;2023-10-19T06:52:17;15.23;;;10.48;;
51578;SDS011;47998;53.242;6.386;2023-10-19T06:54:43;12.90;;;9.10;;
51578;SDS011;47998;53.242;6.386;2023-10-19T06:57:08;14.57;;;9.95;;
51578;SDS011;47998;53.242;6.386;2023-10-19T06:59:35;16.45;;;9.82;;
51578;SDS011;47998;53.242;6.386;2023-10-19T07:02:01;17.40;;;9.52;;
51578;SDS011;47998;53.242;6.386;2023-10-19T07:04:28;14.55;;;9.40;;
51578;SDS011;47998;53.242;6.386;2023-10-19T07:06:54;14.77;;;9.52;;
51578;SDS011;47998;53.242;6.386;2023-10-19T07:09:20;15.07;;;9.35;;
51578;SDS011;47998;53.242;6.386;2023-10-19T07:11:47;12.68;;;8.70;;
51578;SDS011;47998;53.242;6.386;2023-10-19T07:14:12;13.90;;;8.85;;
51578;SDS011;47998;53.242;6.386;2023-10-19T07:16:41;13.32;;;9.25;;
51578;SDS011;47998;53.242;6.386;2023-10-19T07:19:07;14.07;;;8.95;;
51578;SDS011;47998;53.242;6.386;2023-10-19T07:21:34;13.57;;;9.63;;
51578;SDS011;47998;53.242;6.386;2023-10-19T07:24:02;18.08;;;11.07;;
51578;SDS011;47998;53.242;6.386;2023-10-19T07:26:31;19.15;;;12.25;;
51578;SDS011;47998;53.242;6.386;2023-10-19T07:29:01;12.95;;;8.68;;
51578;SDS011;47998;53.242;6.386;2023-10-19T07:31:27;13.18;;;8.80;;
51578;SDS011;47998;53.242;6.386;2023-10-19T07:33:53;13.95;;;9.68;;
51578;SDS011;47998;53.242;6.386;2023-10-19T07:36:22;12.77;;;8.32;;
51578;SDS011;47998;53.242;6.386;2023-10-19T07:38:50;12.20;;;7.82;;
51578;SDS011;47998;53.242;6.386;2023-10-19T07:41:17;13.80;;;9.63;;
51578;SDS011;47998;53.242;6.386;2023-10-19T07:43:42;14.38;;;8.93;;
51578;SDS011;47998;53.242;6.386;2023-10-19T07:46:12;11.93;;;8.32;;
51578;SDS011;47998;53.242;6.386;2023-10-19T07:48:37;13.43;;;7.93;;
51578;SDS011;47998;53.242;6.386;2023-10-19T07:51:03;13.35;;;8.13;;
51578;SDS011;47998;53.242;6.386;2023-10-19T07:53:29;10.68;;;7.30;;
51578;SDS011;47998;53.242;6.386;2023-10-19T07:55:55;12.27;;;7.93;;
51578;SDS011;47998;53.242;6.386;2023-10-19T07:58:22;11.90;;;7.78;;
51578;SDS011;47998;53.242;6.386;2023-10-19T08:00:48;12.40;;;7.32;;
51578;SDS011;47998;53.242;6.386;2023-10-19T08:03:14;11.55;;;8.00;;
51578;SDS011;47998;53.242;6.386;2023-10-19T08:05:41;11.13;;;7.68;;
51578;SDS011;47998;53.242;6.386;2023-10-19T08:08:07;11.38;;;7.22;;
51578;SDS011;47998;53.242;6.386;2023-10-19T08:10:34;11.18;;;7.60;;
51578;SDS011;47998;53.242;6.386;2023-10-19T08:13:00;11.65;;;8.07;;
51578;SDS011;47998;53.242;6.386;2023-10-19T08:15:26;9.77;;;7.53;;
51578;SDS011;47998;53.242;6.386;2023-10-19T08:17:55;9.77;;;6.75;;
51578;SDS011;47998;53.242;6.386;2023-10-19T08:20:21;8.65;;;6.32;;
51578;SDS011;47998;53.242;6.386;2023-10-19T08:22:57;12.50;;;8.07;;
51578;SDS011;47998;53.242;6.386;2023-10-19T08:25:27;10.07;;;7.63;;
51578;SDS011;47998;53.242;6.386;2023-10-19T08:27:53;11.70;;;8.00;;
51578;SDS011;47998;53.242;6.386;2023-10-19T08:30:22;12.23;;;9.18;;
51578;SDS011;47998;53.242;6.386;2023-10-19T08:32:49;11.18;;;8.93;;
51578;SDS011;47998;53.242;6.386;2023-10-19T08:35:17;10.57;;;7.72;;
51578;SDS011;47998;53.242;6.386;2023-10-19T08:37:51;10.85;;;8.77;;
51578;SDS011;47998;53.242;6.386;2023-10-19T08:40:18;14.35;;;8.57;;
51578;SDS011;47998;53.242;6.386;2023-10-19T08:42:45;14.43;;;9.85;;
51578;SDS011;47998;53.242;6.386;2023-10-19T08:45:11;11.90;;;9.18;;
51578;SDS011;47998;53.242;6.386;2023-10-19T08:47:48;11.85;;;9.05;;
51578;SDS011;47998;53.242;6.386;2023-10-19T08:50:26;14.13;;;9.55;;
51578;SDS011;47998;53.242;6.386;2023-10-19T08:52:57;11.60;;;9.38;;
51578;SDS011;47998;53.242;6.386;2023-10-19T08:55:25;15.60;;;11.07;;
51578;SDS011;47998;53.242;6.386;2023-10-19T08:57:51;14.38;;;9.85;;
51578;SDS011;47998;53.242;6.386;2023-10-19T09:00:18;14.35;;;10.38;;
51578;SDS011;47998;53.242;6.386;2023-10-19T09:02:45;16.13;;;10.93;;
51578;SDS011;47998;53.242;6.386;2023-10-19T09:05:11;16.55;;;10.75;;
51578;SDS011;47998;53.242;6.386;2023-10-19T09:07:57;19.33;;;11.13;;
51578;SDS011;47998;53.242;6.386;2023-10-19T09:10:25;15.20;;;10.93;;
51578;SDS011;47998;53.242;6.386;2023-10-19T09:13:02;17.30;;;12.38;;
51578;SDS011;47998;53.242;6.386;2023-10-19T09:15:35;19.08;;;12.77;;
51578;SDS011;47998;53.242;6.386;2023-10-19T09:20:46;19.50;;;13.73;;
51578;SDS011;47998;53.242;6.386;2023-10-19T09:23:21;19.90;;;14.10;;
51578;SDS011;47998;53.242;6.386;2023-10-19T09:25:50;24.17;;;15.25;;
51578;SDS011;47998;53.242;6.386;2023-10-19T09:28:19;30.40;;;17.42;;
51578;SDS011;47998;53.242;6.386;2023-10-19T09:30:46;30.92;;;19.73;;
51578;SDS011;47998;53.242;6.386;2023-10-19T09:33:13;29.10;;;18.30;;
51578;SDS011;47998;53.242;6.386;2023-10-19T09:35:42;30.20;;;17.00;;
51578;SDS011;47998;53.242;6.386;2023-10-19T09:38:13;26.70;;;15.60;;
51578;SDS011;47998;53.242;6.386;2023-10-19T09:40:54;27.38;;;16.50;;
51578;SDS011;47998;53.242;6.386;2023-10-19T09:46:08;27.52;;;17.58;;
51578;SDS011;47998;53.242;6.386;2023-10-19T09:48:45;29.10;;;17.42;;
51578;SDS011;47998;53.242;6.386;2023-10-19T09:51:13;31.13;;;16.60;;
51578;SDS011;47998;53.242;6.386;2023-10-19T09:53:41;24.25;;;14.40;;
51578;SDS011;47998;53.242;6.386;2023-10-19T09:56:33;25.13;;;15.13;;
51578;SDS011;47998;53.242;6.386;2023-10-19T09:59:05;31.42;;;14.80;;
51578;SDS011;47998;53.242;6.386;2023-10-19T10:02:15;30.67;;;16.30;;
51578;SDS011;47998;53.242;6.386;2023-10-19T10:04:36;22.20;;;13.93;;
51578;SDS011;47998;53.242;6.386;2023-10-19T10:07:02;28.92;;;14.80;;
51578;SDS011;47998;53.242;6.386;2023-10-19T10:09:31;29.50;;;15.73;;
51578;SDS011;47998;53.242;6.386;2023-10-19T10:12:21;27.05;;;14.23;;
51578;SDS011;47998;53.242;6.386;2023-10-19T10:14:56;28.27;;;15.82;;
51578;SDS011;47998;53.242;6.386;2023-10-19T10:17:37;22.20;;;13.55;;
51578;SDS011;47998;53.242;6.386;2023-10-19T10:20:55;26.38;;;14.07;;
51578;SDS011;47998;53.242;6.386;2023-10-19T10:25:41;32.95;;;17.38;;
51578;SDS011;47998;53.242;6.386;2023-10-19T10:28:13;27.80;;;15.48;;
51578;SDS011;47998;53.242;6.386;2023-10-19T10:33:38;24.25;;;15.73;;
51578;SDS011;47998;53.242;6.386;2023-10-19T10:36:10;31.67;;;15.65;;
51578;SDS011;47998;53.242;6.386;2023-10-19T10:38:36;28.55;;;15.77;;
51578;SDS011;47998;53.242;6.386;2023-10-19T10:41:03;34.03;;;18.75;;
51578;SDS011;47998;53.242;6.386;2023-10-19T10:43:29;28.83;;;15.73;;
51578;SDS011;47998;53.242;6.386;2023-10-19T10:46:16;27.92;;;16.00;;
51578;SDS011;47998;53.242;6.386;2023-10-19T10:48:42;26.70;;;14.82;;
51578;SDS011;47998;53.242;6.386;2023-10-19T10:51:17;27.27;;;16.38;;
51578;SDS011;47998;53.242;6.386;2023-10-19T10:53:47;28.30;;;15.18;;
51578;SDS011;47998;53.242;6.386;2023-10-19T10:56:18;29.00;;;15.70;;
51578;SDS011;47998;53.242;6.386;2023-10-19T10:58:45;33.25;;;15.27;;
51578;SDS011;47998;53.242;6.386;2023-10-19T11:01:11;32.30;;;15.60;;
51578;SDS011;47998;53.242;6.386;2023-10-19T11:03:38;32.55;;;15.75;;
51578;SDS011;47998;53.242;6.386;2023-10-19T11:06:08;27.17;;;14.63;;
51578;SDS011;47998;53.242;6.386;2023-10-19T11:08:35;29.67;;;15.68;;
51578;SDS011;47998;53.242;6.386;2023-10-19T11:11:03;27.48;;;14.20;;
51578;SDS011;47998;53.242;6.386;2023-10-19T11:13:35;25.23;;;15.52;;
51578;SDS011;47998;53.242;6.386;2023-10-19T11:16:04;27.83;;;14.45;;
51578;SDS011;47998;53.242;6.386;2023-10-19T11:18:35;24.48;;;14.05;;
51578;SDS011;47998;53.242;6.386;2023-10-19T11:21:09;29.17;;;14.73;;
51578;SDS011;47998;53.242;6.386;2023-10-19T11:23:40;26.65;;;14.48;;
51578;SDS011;47998;53.242;6.386;2023-10-19T11:26:08;22.95;;;15.18;;
51578;SDS011;47998;53.242;6.386;2023-10-19T11:28:38;25.55;;;14.80;;
51578;SDS011;47998;53.242;6.386;2023-10-19T11:31:16;27.73;;;15.30;;
51578;SDS011;47998;53.242;6.386;2023-10-19T11:33:44;25.65;;;15.60;;
51578;SDS011;47998;53.242;6.386;2023-10-19T11:36:11;37.78;;;22.25;;
51578;SDS011;47998;53.242;6.386;2023-10-19T11:38:41;29.40;;;17.25;;
51578;SDS011;47998;53.242;6.386;2023-10-19T11:41:09;32.58;;;17.58;;
51578;SDS011;47998;53.242;6.386;2023-10-19T11:43:35;22.30;;;14.52;;
51578;SDS011;47998;53.242;6.386;2023-10-19T11:46:02;24.60;;;14.98;;
51578;SDS011;47998;53.242;6.386;2023-10-19T11:48:32;22.15;;;14.65;;
51578;SDS011;47998;53.242;6.386;2023-10-19T11:51:02;23.50;;;15.02;;
51578;SDS011;47998;53.242;6.386;2023-10-19T11:53:31;21.63;;;13.95;;
51578;SDS011;47998;53.242;6.386;2023-10-19T11:56:09;22.75;;;14.15;;
51578;SDS011;47998;53.242;6.386;2023-10-19T11:58:37;21.05;;;13.88;;
51578;SDS011;47998;53.242;6.386;2023-10-19T12:01:05;21.75;;;14.93;;
51578;SDS011;47998;53.242;6.386;2023-10-19T12:03:40;19.40;;;14.23;;
51578;SDS011;47998;53.242;6.386;2023-10-19T12:06:07;20.25;;;14.00;;
51578;SDS011;47998;53.242;6.386;2023-10-19T12:08:36;23.35;;;15.30;;
51578;SDS011;47998;53.242;6.386;2023-10-19T12:11:05;23.10;;;14.75;;
51578;SDS011;47998;53.242;6.386;2023-10-19T12:13:42;23.55;;;16.70;;
51578;SDS011;47998;53.242;6.386;2023-10-19T12:16:12;23.27;;;16.65;;
51578;SDS011;47998;53.242;6.386;2023-10-19T12:18:38;30.00;;;19.25;;
51578;SDS011;47998;53.242;6.386;2023-10-19T12:21:04;34.72;;;23.65;;
51578;SDS011;47998;53.242;6.386;2023-10-19T12:23:33;40.38;;;24.00;;
51578;SDS011;47998;53.242;6.386;2023-10-19T12:26:00;47.42;;;28.17;;
51578;SDS011;47998;53.242;6.386;2023-10-19T12:28:29;36.30;;;26.33;;
51578;SDS011;47998;53.242;6.386;2023-10-19T12:30:55;44.28;;;28.70;;
51578;SDS011;47998;53.242;6.386;2023-10-19T12:33:21;51.63;;;31.50;;
51578;SDS011;47998;53.242;6.386;2023-10-19T12:35:47;46.70;;;28.63;;
51578;SDS011;47998;53.242;6.386;2023-10-19T12:38:22;54.00;;;30.13;;
51578;SDS011;47998;53.242;6.386;2023-10-19T12:40:48;51.03;;;29.23;;
51578;SDS011;47998;53.242;6.386;2023-10-19T12:43:16;49.53;;;27.98;;
51578;SDS011;47998;53.242;6.386;2023-10-19T12:45:48;39.80;;;23.40;;
51578;SDS011;47998;53.242;6.386;2023-10-19T12:48:22;36.35;;;23.20;;
51578;SDS011;47998;53.242;6.386;2023-10-19T12:50:55;35.25;;;22.05;;
51578;SDS011;47998;53.242;6.386;2023-10-19T12:53:21;40.78;;;24.23;;
51578;SDS011;47998;53.242;6.386;2023-10-19T12:55:50;34.17;;;21.10;;
51578;SDS011;47998;53.242;6.386;2023-10-19T12:58:17;33.22;;;20.63;;
51578;SDS011;47998;53.242;6.386;2023-10-19T13:00:44;33.13;;;20.80;;
51578;SDS011;47998;53.242;6.386;2023-10-19T13:03:15;28.92;;;19.48;;
51578;SDS011;47998;53.242;6.386;2023-10-19T13:05:43;34.00;;;17.65;;
51578;SDS011;47998;53.242;6.386;2023-10-19T13:08:10;35.90;;;21.42;;
51578;SDS011;47998;53.242;6.386;2023-10-19T13:10:41;30.30;;;18.40;;
51578;SDS011;47998;53.242;6.386;2023-10-19T13:13:12;29.40;;;16.58;;
51578;SDS011;47998;53.242;6.386;2023-10-19T13:15:40;25.33;;;15.55;;
51578;SDS011;47998;53.242;6.386;2023-10-19T13:18:08;26.00;;;14.93;;
51578;SDS011;47998;53.242;6.386;2023-10-19T13:20:35;29.05;;;15.93;;
51578;SDS011;47998;53.242;6.386;2023-10-19T13:23:09;26.48;;;15.38;;
51578;SDS011;47998;53.242;6.386;2023-10-19T13:25:41;23.95;;;13.70;;
51578;SDS011;47998;53.242;6.386;2023-10-19T13:28:11;23.77;;;13.82;;
51578;SDS011;47998;53.242;6.386;2023-10-19T13:30:39;28.25;;;14.57;;
51578;SDS011;47998;53.242;6.386;2023-10-19T13:33:12;23.65;;;14.43;;
51578;SDS011;47998;53.242;6.386;2023-10-19T13:35:39;23.80;;;13.63;;
51578;SDS011;47998;53.242;6.386;2023-10-19T13:38:07;21.80;;;13.60;;
51578;SDS011;47998;53.242;6.386;2023-10-19T13:40:37;27.40;;;15.10;;
51578;SDS011;47998;53.242;6.386;2023-10-19T13:43:04;27.85;;;13.57;;
51578;SDS011;47998;53.242;6.386;2023-10-19T13:45:34;22.55;;;14.00;;
51578;SDS011;47998;53.242;6.386;2023-10-19T13:48:04;27.27;;;14.20;;
51578;SDS011;47998;53.242;6.386;2023-10-19T13:50:31;23.60;;;13.40;;
51578;SDS011;47998;53.242;6.386;2023-10-19T13:52:58;28.08;;;15.05;;
51578;SDS011;47998;53.242;6.386;2023-10-19T13:55:25;29.23;;;16.33;;
51578;SDS011;47998;53.242;6.386;2023-10-19T13:57:52;25.75;;;14.88;;
51578;SDS011;47998;53.242;6.386;2023-10-19T14:00:18;26.50;;;15.35;;
51578;SDS011;47998;53.242;6.386;2023-10-19T14:02:49;35.33;;;16.60;;
51578;SDS011;47998;53.242;6.386;2023-10-19T14:05:16;32.15;;;16.48;;
51578;SDS011;47998;53.242;6.386;2023-10-19T14:07:41;30.70;;;16.42;;
51578;SDS011;47998;53.242;6.386;2023-10-19T14:10:08;31.48;;;16.52;;
51578;SDS011;47998;53.242;6.386;2023-10-19T14:12:38;31.88;;;16.55;;
51578;SDS011;47998;53.242;6.386;2023-10-19T14:15:08;32.60;;;17.02;;
51578;SDS011;47998;53.242;6.386;2023-10-19T14:17:41;35.53;;;17.42;;
51578;SDS011;47998;53.242;6.386;2023-10-19T14:20:08;30.02;;;16.13;;
51578;SDS011;47998;53.242;6.386;2023-10-19T14:25:10;35.75;;;18.48;;
51578;SDS011;47998;53.242;6.386;2023-10-19T14:27:41;35.45;;;18.63;;
51578;SDS011;47998;53.242;6.386;2023-10-19T14:30:17;32.15;;;18.25;;
51578;SDS011;47998;53.242;6.386;2023-10-19T14:32:48;34.53;;;17.73;;
51578;SDS011;47998;53.242;6.386;2023-10-19T14:35:14;31.45;;;17.00;;
51578;SDS011;47998;53.242;6.386;2023-10-19T14:37:43;39.80;;;20.25;;
51578;SDS011;47998;53.242;6.386;2023-10-19T14:40:14;29.80;;;17.35;;
51578;SDS011;47998;53.242;6.386;2023-10-19T14:42:46;30.73;;;15.93;;
51578;SDS011;47998;53.242;6.386;2023-10-19T14:45:13;31.40;;;15.45;;
51578;SDS011;47998;53.242;6.386;2023-10-19T14:47:41;33.13;;;16.30;;
51578;SDS011;47998;53.242;6.386;2023-10-19T14:50:29;29.30;;;15.68;;
51578;SDS011;47998;53.242;6.386;2023-10-19T14:52:55;29.38;;;15.63;;